バンダラナイケ国際空港の過去48時間の天気

バンダラナイケ国際空港 (Katunayake)

現在時刻: 2/6 02:23 +0530 (2/5 20:53 UTC) 以下の時間は現地時間です。

過去48時間のMETAR気象情報
時間 風向 風速(m/s) 視程 気温(℃) 湿度(%) 気圧(hPa) 天気現象
6 01:40 北東 3 10km以上 24 89 1009
6 00:40 北北東 5 10km以上 25 83 1010
5 23:40 北東 5 10km以上 25 83 1010
5 22:40 北北東 4 10km以上 26 89 1010
5 21:40 北東 4 10km以上 26 84 1010
5 20:40 北北東 2 10km以上 27 74 1010
5 19:40 北北東 6 10km以上 27 79 1008
5 18:40 北北東 4 10km以上 29 66 1007
5 17:40 北北東 5 9000m 31 59 1007
5 16:40 4 10km以上 30 70 1006
5 15:40 4 10km以上 30 70 1006
5 14:40 北北東 4 10km以上 33 59 1006
5 13:40 北東 4 10km以上 32 59 1007
5 12:40 北北東 4 10km以上 30 66 1009
5 11:40 北東 4 10km以上 30 70 1010
5 10:40 東北東 5 10km以上 29 74 1010
5 09:40 北東 6 10km以上 28 79 1011
5 08:40 北東 5 10km以上 26 89 1011
5 07:40 北北東 3 10km以上 25 89 1010
5 06:40 北北東 3 7000m 25 89 1009
5 05:40 北北東 4 10km以上 25 94 1008
5 04:40 北東 3 10km以上 25 94 1008
5 03:40 北東 3 10km以上 25 89 1008
5 02:40 1 10km以上 25 94 1008
5 01:40 静穏 0 10km以上 25 89 1009
5 00:40 北東 3 10km以上 25 89 1010
4 23:40 北東 3 10km以上 25 89 1010
4 22:40 北北東 3 10km以上 26 84 1010
4 21:40 北東 4 10km以上 26 84 1010
4 20:40 北東 4 10km以上 27 79 1010 周辺で雷
4 19:40 北東 4 10km以上 27 79 1009 周辺で雷
4 17:40 3 10km以上 28 84 1007
4 15:40 北北西 4 10km以上 29 79 1006
4 14:40 静穏 0 10km以上 32 59 1007
4 13:40 北北東 3 10km以上 32 59 1008
4 12:40 北東 4 10km以上 31 59 1009
4 11:40 東北東 5 10km以上 31 59 1010
4 10:40 北東 4 10km以上 30 70 1011
4 09:40 東北東 5 10km以上 28 79 1011
4 08:40 北東 4 10km以上 26 89 1011
4 07:40 2 10km以上 24 100 1009
4 06:40 静穏 0 10km以上 24 94 1009
4 05:40 北北東 3 10km以上 24 94 1008
4 04:40 北東 3 10km以上 24 94 1007
4 03:40 北東 2 10km以上 23 100 1007
4 02:40 2 10km以上 24 94 1008
VCBI 052010Z 04006KT 9999 FEW018 24/22 Q1009 NOSIG
VCBI 051910Z 03010KT 9999 FEW018 25/22 Q1010 NOSIG
VCBI 051810Z 04010KT 9999 FEW018 25/22 Q1010 NOSIG
VCBI 051710Z 03008KT 9999 FEW030 26/24 Q1010 NOSIG
VCBI 051610Z 04007KT 360V070 9999 FEW030 26/23 Q1010 NOSIG
VCBI 051510Z 03004KT 350V060 9999 FEW018 27/22 Q1010 NOSIG
VCBI 051410Z 03011KT 350V070 9999 FEW018 27/23 Q1008 NOSIG
VCBI 051310Z 02007KT 9999 FEW018 29/22 Q1007 NOSIG
VCBI 051210Z 03009KT 350V060 9000 SCT018 FEW020TCU 31/22 Q1007 NOSIG RMK TCU SE
VCBI 051110Z 01007KT 340V050 9999 SCT018 30/24 Q1006 NOSIG
VCBI 051010Z 35007KT 290V040 9999 SCT017 30/24 Q1006 NOSIG
VCBI 050910Z 02008KT 9999 SCT017 33/24 Q1006 NOSIG
VCBI 050810Z 04008KT 020V090 9999 SCT017 32/23 Q1007 NOSIG
VCBI 050710Z 03008KT 330V080 9999 SCT017 30/23 Q1009 NOSIG
VCBI 050610Z 04007KT 010V080 9999 SCT016 30/24 Q1010 NOSIG
VCBI 050510Z 06010KT 030V100 9999 FEW017 29/24 Q1010 NOSIG
VCBI 050410Z 05012KT 020V080 9999 FEW017 28/24 Q1011 NOSIG
VCBI 050310Z 04010KT 9999 SCT030 26/24 Q1011 NOSIG
VCBI 050210Z 02006KT 9999 SCT030 25/23 Q1010 NOSIG
VCBI 050110Z 03006KT 7000 SCT030 25/23 Q1009 NOSIG
VCBI 050010Z 03007KT 9999 SCT030 25/24 Q1008 NOSIG
VCBI 042310Z 04006KT 9999 SCT017 25/24 Q1008 RESHRA NOSIG
VCBI 042210Z 05005KT 9999 SCT030 25/23 Q1008 NOSIG
VCBI 042110Z 01002KT 9999 SCT030 25/24 Q1008 NOSIG
VCBI 042010Z 00000KT CAVOK 25/23 Q1009 NOSIG
VCBI 041910Z 04005KT CAVOK 25/23 Q1010 NOSIG
VCBI 041810Z 04006KT CAVOK 25/23 Q1010 NOSIG
VCBI 041710Z 03006KT 9999 FEW030 26/23 Q1010 NOSIG
VCBI 041610Z 05007KT 9999 FEW020CB 26/23 Q1010 NOSIG RMK CB SW
VCBI 041510Z 04008KT 9999 VCTS FEW020CB 27/23 Q1010 NOSIG RMK CB S/SW
VCBI 041410Z 05007KT 9999 VCTS FEW017 FEW020CB 27/23 Q1009 NOSIG RMK CB SE/S/SW
VCBI 041210Z 01006KT 330V040 9999 TS SCT016 FEW018CB 28/25 Q1007 NOSIG RMK CB SE/S
VCBI 041010Z 33008KT 250V030 9999 FEW018 SCT028 29/25 Q1006 NOSIG
VCBI 040910Z 00000KT 9999 FEW017 BKN024 32/23 Q1007 NOSIG
VCBI 040810Z 03005KT 340V070 9999 SCT017 FEW018TCU 32/23 Q1008 NOSIG RMK TCU SE/S
VCBI 040710Z 05007KT 9999 BKN017 31/22 Q1009 NOSIG
VCBI 040610Z 06009KT 360V100 9999 SCT017 31/22 Q1010 NOSIG
VCBI 040510Z 05008KT 9999 FEW017 30/24 Q1011 NOSIG
VCBI 040410Z 06009KT 020V080 9999 FEW017 28/24 Q1011 NOSIG
VCBI 040310Z 05008KT 010V080 9999 FEW017 26/24 Q1011 NOSIG
VCBI 040210Z 01004KT 340V040 9999 FEW014 24/24 Q1009 NOSIG
VCBI 040110Z 00000KT 9999 FEW030 24/23 Q1009 NOSIG
VCBI 040010Z 02005KT 9999 SCT030 24/23 Q1008 NOSIG
VCBI 032310Z 05005KT CAVOK 24/23 Q1007 NOSIG
VCBI 032210Z 04004KT 9999 FEW028 23/23 Q1007 NOSIG
VCBI 032110Z 08004KT 9999 FEW030 24/23 Q1008 NOSIG